Time;durP1;ratioP1;P1;durP2;ratioP2;P2;SDS_P1;SDS_P2;PMS_P1;PMS_P2;Temp;Humidity;BMP_temperature;BMP_pressure;BME280_temperature;BME280_humidity;BME280_pressure;Samples;Min_cycle;Max_cycle;Signal;HPM_P1;HPM_P2
2022/12/29 00:01:28;;;;;;;80.53;42.72;;;;;;;;;;6276756;28;20037;-79
2022/12/29 00:04:30;;;;;;;76.18;41.30;;;;;;;;;;6278231;28;20321;-79
2022/12/29 00:07:31;;;;;;;74.70;40.90;;;;;;;;;;6277897;28;20049;-79
2022/12/29 00:10:34;;;;;;;79.95;42.22;;;;;;;;;;6279882;28;20232;-79
2022/12/29 00:16:56;;;;;;;75.95;41.50;;;;;;;;;;6281449;28;20056;-78
2022/12/29 00:36:38;;;;;;;72.38;40.53;;;;;;;;;;6281003;28;20041;-79
2022/12/29 00:46:20;;;;;;;72.20;40.35;;;;;;;;;;6259839;28;20052;-79
2022/12/29 00:49:32;;;;;;;79.88;40.60;;;;;;;;;;6280826;28;20057;-79
2022/12/29 00:52:34;;;;;;;74.55;40.22;;;;;;;;;;6279751;28;20076;-79
2022/12/29 00:55:38;;;;;;;79.95;41.40;;;;;;;;;;6278291;28;20079;-79
2022/12/29 00:58:39;;;;;;;82.00;42.28;;;;;;;;;;6278690;28;20044;-79
2022/12/29 01:01:41;;;;;;;79.78;42.47;;;;;;;;;;6280705;28;20316;-78
2022/12/29 01:04:44;;;;;;;76.35;42.17;;;;;;;;;;6279440;28;20064;-79
2022/12/29 01:07:46;;;;;;;78.03;42.45;;;;;;;;;;6277674;28;20053;-76
2022/12/29 01:10:47;;;;;;;79.82;40.75;;;;;;;;;;6277163;28;20046;-78
2022/12/29 01:13:49;;;;;;;84.57;44.13;;;;;;;;;;6278702;28;20095;-79
2022/12/29 01:16:51;;;;;;;76.10;42.13;;;;;;;;;;6277391;28;20053;-79
2022/12/29 01:19:54;;;;;;;77.43;42.85;;;;;;;;;;6278403;28;20430;-79
2022/12/29 01:22:55;;;;;;;80.38;41.90;;;;;;;;;;6279002;28;20094;-78
2022/12/29 01:25:57;;;;;;;77.57;41.83;;;;;;;;;;6275828;28;20064;-79
2022/12/29 01:28:59;;;;;;;79.10;43.72;;;;;;;;;;6276426;28;20083;-74
2022/12/29 01:32:00;;;;;;;83.18;43.78;;;;;;;;;;6282132;28;20048;-79
2022/12/29 01:35:04;;;;;;;78.32;41.50;;;;;;;;;;6277120;28;20073;-79
2022/12/29 01:38:07;;;;;;;81.38;43.75;;;;;;;;;;6281051;28;20108;-79
2022/12/29 01:41:11;;;;;;;75.95;42.13;;;;;;;;;;6277413;28;20072;-79
2022/12/29 01:44:31;;;;;;;;;;;;;;;;;;6281084;28;20049;-79
2022/12/29 01:47:37;;;;;;;75.65;40.47;;;;;;;;;;6280464;28;19927;-79
2022/12/29 01:50:42;;;;;;;76.38;42.40;;;;;;;;;;6279391;28;20053;-79
2022/12/29 01:53:44;;;;;;;78.20;42.53;;;;;;;;;;6276593;28;20103;-78
2022/12/29 01:56:46;;;;;;;81.18;41.05;;;;;;;;;;6275264;28;20099;-79
2022/12/29 01:59:51;;;;;;;80.45;41.67;;;;;;;;;;6279889;28;20099;-79
2022/12/29 02:02:54;;;;;;;69.90;39.85;;;;;;;;;;6275636;28;20041;-78
2022/12/29 02:05:59;;;;;;;72.78;40.40;;;;;;;;;;6275963;28;20048;-79
2022/12/29 02:09:01;;;;;;;77.78;40.85;;;;;;;;;;6275840;28;20366;-78
2022/12/29 02:12:03;;;;;;;73.95;41.45;;;;;;;;;;6275194;28;20642;-79
2022/12/29 02:15:06;;;;;;;75.72;42.22;;;;;;;;;;6279521;28;20098;-78
2022/12/29 02:18:20;;;;;;;74.38;41.22;;;;;;;;;;6279380;28;20049;-77
2022/12/29 02:21:45;;;;;;;77.60;41.47;;;;;;;;;;6281455;28;20045;-78
2022/12/29 02:25:09;;;;;;;73.22;40.67;;;;;;;;;;6282455;28;20049;-78
2022/12/29 02:28:37;;;;;;;77.13;41.70;;;;;;;;;;6278177;28;20049;-79
2022/12/29 02:31:43;;;;;;;75.90;39.25;;;;;;;;;;6283105;28;20107;-79
2022/12/29 02:34:50;;;;;;;80.00;41.20;;;;;;;;;;6280536;28;20044;-79
2022/12/29 02:38:00;;;;;;;69.47;38.72;;;;;;;;;;6282696;28;20336;-78
2022/12/29 02:41:07;;;;;;;80.10;41.42;;;;;;;;;;6280476;28;20040;-78
2022/12/29 02:44:14;;;;;;;70.53;38.83;;;;;;;;;;6278415;28;20394;-79
2022/12/29 02:47:23;;;;;;;72.13;39.05;;;;;;;;;;6281577;28;20045;-79
2022/12/29 02:50:28;;;;;;;69.90;38.75;;;;;;;;;;6278388;28;20055;-78
2022/12/29 02:56:50;;;;;;;71.75;40.35;;;;;;;;;;6276695;28;20057;-78
2022/12/29 02:59:54;;;;;;;70.22;38.75;;;;;;;;;;6276239;28;20053;-75
2022/12/29 03:03:08;;;;;;;73.82;39.45;;;;;;;;;;6276247;28;20112;-78
2022/12/29 03:06:39;;;;;;;74.30;39.83;;;;;;;;;;6275283;28;20445;-78
2022/12/29 03:09:44;;;;;;;67.63;37.85;;;;;;;;;;6222082;28;20061;-74
2022/12/29 03:16:18;;;;;;;69.63;37.77;;;;;;;;;;6224307;28;20118;-75
2022/12/29 03:19:25;;;;;;;65.85;37.33;;;;;;;;;;6225951;28;20468;-75
2022/12/29 03:22:31;;;;;;;71.35;37.55;;;;;;;;;;6225929;28;20042;-77
2022/12/29 03:25:36;;;;;;;76.70;40.03;;;;;;;;;;6223233;28;20078;-76
2022/12/29 03:28:40;;;;;;;75.85;38.85;;;;;;;;;;6223747;28;20273;-76
2022/12/29 03:31:43;;;;;;;64.97;36.17;;;;;;;;;;6227370;28;20253;-76
2022/12/29 03:34:46;;;;;;;69.40;37.33;;;;;;;;;;6223466;28;20346;-75
2022/12/29 03:37:52;;;;;;;66.63;35.97;;;;;;;;;;6223944;28;20372;-75
2022/12/29 03:40:56;;;;;;;66.43;35.45;;;;;;;;;;6223890;28;20084;-73
2022/12/29 03:43:58;;;;;;;61.40;35.40;;;;;;;;;;6231336;28;20094;-76
2022/12/29 03:47:00;;;;;;;60.55;33.83;;;;;;;;;;6273307;28;20092;-74
2022/12/29 03:50:03;;;;;;;62.58;34.38;;;;;;;;;;6275897;28;20118;-76
2022/12/29 03:53:05;;;;;;;62.75;34.13;;;;;;;;;;6276209;28;20064;-77
2022/12/29 03:56:07;;;;;;;64.13;34.42;;;;;;;;;;6274437;28;20045;-74
2022/12/29 03:59:09;;;;;;;65.05;35.05;;;;;;;;;;6273240;28;20091;-73
2022/12/29 04:02:10;;;;;;;62.60;34.35;;;;;;;;;;6276208;28;20420;-74
2022/12/29 04:05:13;;;;;;;65.03;34.80;;;;;;;;;;6276524;28;20067;-75
2022/12/29 04:08:15;;;;;;;60.92;33.20;;;;;;;;;;6277988;28;20049;-72
2022/12/29 04:11:17;;;;;;;63.97;36.00;;;;;;;;;;6276196;28;20045;-76
2022/12/29 04:14:18;;;;;;;61.35;34.70;;;;;;;;;;6275162;28;20095;-75
2022/12/29 04:17:20;;;;;;;59.78;34.97;;;;;;;;;;6273983;28;20049;-75
2022/12/29 04:23:43;;;;;;;59.45;34.10;;;;;;;;;;6274748;28;20044;-72
2022/12/29 04:26:44;;;;;;;62.65;34.20;;;;;;;;;;6273602;28;20052;-75
2022/12/29 04:29:46;;;;;;;59.33;32.97;;;;;;;;;;6275902;28;20049;-74
2022/12/29 04:32:47;;;;;;;59.30;34.63;;;;;;;;;;6274778;28;20102;-76
2022/12/29 04:35:52;;;;;;;59.38;33.92;;;;;;;;;;6273932;28;20049;-75
2022/12/29 04:38:54;;;;;;;60.17;33.75;;;;;;;;;;6273956;28;20052;-75
2022/12/29 04:41:56;;;;;;;60.97;35.13;;;;;;;;;;6275767;28;20112;-74
2022/12/29 04:44:58;;;;;;;64.10;36.13;;;;;;;;;;6276378;28;20048;-75
2022/12/29 04:47:59;;;;;;;61.30;35.63;;;;;;;;;;6275517;28;20328;-75
2022/12/29 04:51:02;;;;;;;70.28;37.30;;;;;;;;;;6278101;28;20041;-75
2022/12/29 04:54:04;;;;;;;60.22;34.10;;;;;;;;;;6278243;28;20066;-75
2022/12/29 04:57:06;;;;;;;55.72;33.90;;;;;;;;;;6278322;28;20051;-75
2022/12/29 05:00:09;;;;;;;61.58;34.17;;;;;;;;;;6280313;28;20045;-75
2022/12/29 05:03:11;;;;;;;61.60;34.00;;;;;;;;;;6278935;28;20045;-75
2022/12/29 05:06:14;;;;;;;62.22;33.83;;;;;;;;;;6276946;28;20080;-75
2022/12/29 05:09:16;;;;;;;63.67;36.83;;;;;;;;;;6278545;28;20053;-75
2022/12/29 05:12:17;;;;;;;59.53;35.78;;;;;;;;;;6278099;28;20048;-75
2022/12/29 05:15:19;;;;;;;62.17;34.72;;;;;;;;;;6279294;28;20051;-74
2022/12/29 05:18:21;;;;;;;65.38;37.50;;;;;;;;;;6279015;28;20045;-75
2022/12/29 05:21:24;;;;;;;62.47;34.55;;;;;;;;;;6278561;28;20057;-76
2022/12/29 05:24:26;;;;;;;62.80;36.20;;;;;;;;;;6279379;28;20130;-73
2022/12/29 05:27:27;;;;;;;57.45;35.58;;;;;;;;;;6278800;28;20093;-75
2022/12/29 05:30:29;;;;;;;66.00;35.72;;;;;;;;;;6278558;28;20052;-74
2022/12/29 05:33:31;;;;;;;66.15;34.80;;;;;;;;;;6277862;28;20045;-75
2022/12/29 05:36:34;;;;;;;63.30;33.67;;;;;;;;;;6279131;28;20059;-75
2022/12/29 05:39:35;;;;;;;61.95;33.85;;;;;;;;;;6280037;28;20112;-75
2022/12/29 05:42:37;;;;;;;60.33;34.80;;;;;;;;;;6276292;28;20045;-75
2022/12/29 05:45:38;;;;;;;61.95;33.40;;;;;;;;;;6278303;28;20048;-75
2022/12/29 05:48:40;;;;;;;64.70;34.90;;;;;;;;;;6276042;28;20044;-74
2022/12/29 05:51:44;;;;;;;60.00;33.72;;;;;;;;;;6277381;28;20052;-74
2022/12/29 05:54:45;;;;;;;62.40;34.45;;;;;;;;;;6278664;28;20120;-74
2022/12/29 05:57:47;;;;;;;66.53;34.72;;;;;;;;;;6277400;28;20162;-73
2022/12/29 06:00:49;;;;;;;60.97;33.63;;;;;;;;;;6276798;28;20045;-75
2022/12/29 06:03:50;;;;;;;64.50;33.10;;;;;;;;;;6274913;28;20228;-73
2022/12/29 06:06:53;;;;;;;59.88;33.80;;;;;;;;;;6274624;28;20053;-75
2022/12/29 06:09:55;;;;;;;55.75;32.58;;;;;;;;;;6277522;28;20057;-76
2022/12/29 06:12:57;;;;;;;59.78;34.10;;;;;;;;;;6276467;28;20044;-74
2022/12/29 06:15:58;;;;;;;60.58;33.90;;;;;;;;;;6276374;28;20324;-74
2022/12/29 06:19:00;;;;;;;55.40;32.72;;;;;;;;;;6273991;28;20044;-74
2022/12/29 06:22:03;;;;;;;60.08;33.33;;;;;;;;;;6278013;28;20045;-75
2022/12/29 06:25:05;;;;;;;56.95;33.50;;;;;;;;;;6272729;28;20256;-74
2022/12/29 06:28:07;;;;;;;60.40;32.67;;;;;;;;;;6270467;28;20045;-74
2022/12/29 06:31:10;;;;;;;56.50;31.77;;;;;;;;;;6278731;28;20053;-74
2022/12/29 06:34:11;;;;;;;59.95;33.03;;;;;;;;;;6276260;28;20053;-74
2022/12/29 06:37:14;;;;;;;60.75;32.72;;;;;;;;;;6277037;28;20049;-74
2022/12/29 06:40:16;;;;;;;59.72;33.33;;;;;;;;;;6274202;28;20279;-74
2022/12/29 06:43:18;;;;;;;57.72;33.22;;;;;;;;;;6277338;28;20279;-74
2022/12/29 06:46:19;;;;;;;60.17;33.88;;;;;;;;;;6275617;28;20065;-73
2022/12/29 06:49:21;;;;;;;59.13;32.60;;;;;;;;;;6275943;28;20037;-71
2022/12/29 06:52:24;;;;;;;59.55;32.80;;;;;;;;;;6272966;28;20053;-73
2022/12/29 06:55:28;;;;;;;62.35;33.47;;;;;;;;;;6274660;28;20321;-73
2022/12/29 06:58:29;;;;;;;60.40;33.50;;;;;;;;;;6277483;28;20065;-73
2022/12/29 07:01:31;;;;;;;61.72;33.42;;;;;;;;;;6270577;28;20041;-74
2022/12/29 07:04:32;;;;;;;62.30;33.55;;;;;;;;;;6252376;28;20206;-75
2022/12/29 07:07:35;;;;;;;57.65;32.53;;;;;;;;;;6252195;28;20068;-74
2022/12/29 07:10:37;;;;;;;59.47;33.75;;;;;;;;;;6249970;28;20053;-75
2022/12/29 07:13:40;;;;;;;59.75;32.95;;;;;;;;;;6258501;28;20131;-74
2022/12/29 07:16:42;;;;;;;58.60;33.28;;;;;;;;;;6274672;28;20065;-74
2022/12/29 07:19:44;;;;;;;62.95;33.55;;;;;;;;;;6275397;28;20053;-72
2022/12/29 07:22:47;;;;;;;58.38;32.50;;;;;;;;;;6271849;28;20235;-74
2022/12/29 07:25:49;;;;;;;61.10;33.77;;;;;;;;;;6274275;28;20229;-75
2022/12/29 07:28:51;;;;;;;64.63;35.50;;;;;;;;;;6272121;28;20632;-74
2022/12/29 07:31:53;;;;;;;58.83;34.10;;;;;;;;;;6271881;28;20045;-74
2022/12/29 07:34:54;;;;;;;62.08;33.92;;;;;;;;;;6274656;28;20052;-75
2022/12/29 07:37:57;;;;;;;62.97;34.95;;;;;;;;;;6278207;28;20070;-74
2022/12/29 07:40:59;;;;;;;64.40;37.70;;;;;;;;;;6275255;28;20102;-75
2022/12/29 07:44:01;;;;;;;63.03;35.42;;;;;;;;;;6274675;28;20320;-74
2022/12/29 07:47:02;;;;;;;64.90;35.08;;;;;;;;;;6277015;28;20045;-75
2022/12/29 07:50:05;;;;;;;62.92;35.28;;;;;;;;;;6276651;28;20064;-75
2022/12/29 07:53:08;;;;;;;63.30;35.50;;;;;;;;;;6275698;28;20048;-75
2022/12/29 07:56:10;;;;;;;66.53;36.70;;;;;;;;;;6275125;28;20102;-75
2022/12/29 07:59:12;;;;;;;61.15;36.67;;;;;;;;;;6275343;28;20391;-74
2022/12/29 08:02:14;;;;;;;69.22;36.38;;;;;;;;;;6274633;28;20045;-75
2022/12/29 08:05:15;;;;;;;71.90;37.75;;;;;;;;;;6278100;28;20106;-73
2022/12/29 08:08:18;;;;;;;62.45;34.60;;;;;;;;;;6276728;28;20045;-73
2022/12/29 08:11:20;;;;;;;65.50;34.95;;;;;;;;;;6275993;28;20154;-74
2022/12/29 08:14:22;;;;;;;68.72;36.00;;;;;;;;;;6274332;28;20106;-74
2022/12/29 08:17:23;;;;;;;64.05;35.97;;;;;;;;;;6275789;28;20109;-72
2022/12/29 08:20:25;;;;;;;71.05;37.13;;;;;;;;;;6275766;28;20045;-74
2022/12/29 08:23:28;;;;;;;67.78;37.08;;;;;;;;;;6276282;28;20052;-74
2022/12/29 08:26:30;;;;;;;73.07;38.50;;;;;;;;;;6279368;28;20213;-75
2022/12/29 08:29:31;;;;;;;74.95;40.40;;;;;;;;;;6279781;28;20051;-74
2022/12/29 08:32:33;;;;;;;77.63;40.35;;;;;;;;;;6279444;28;20079;-74
2022/12/29 08:35:35;;;;;;;73.22;38.88;;;;;;;;;;6281902;28;20060;-74
2022/12/29 08:38:38;;;;;;;69.45;37.78;;;;;;;;;;6278940;28;20041;-74
2022/12/29 08:41:39;;;;;;;75.82;40.40;;;;;;;;;;6282523;28;20056;-75
2022/12/29 08:44:41;;;;;;;77.75;40.95;;;;;;;;;;6279423;28;20332;-74
2022/12/29 08:47:43;;;;;;;75.70;41.55;;;;;;;;;;6281024;28;20393;-73
2022/12/29 08:50:44;;;;;;;78.10;41.03;;;;;;;;;;6282634;28;20041;-74
2022/12/29 08:53:48;;;;;;;81.60;41.17;;;;;;;;;;6277982;28;20049;-75
2022/12/29 08:56:49;;;;;;;78.68;40.97;;;;;;;;;;6278824;28;20052;-74
2022/12/29 08:59:51;;;;;;;77.30;40.53;;;;;;;;;;6280342;28;20048;-74
2022/12/29 09:02:52;;;;;;;76.53;40.70;;;;;;;;;;6281118;28;20333;-74
2022/12/29 09:05:55;;;;;;;73.35;39.92;;;;;;;;;;6281530;28;20116;-74
2022/12/29 09:08:58;;;;;;;77.13;40.90;;;;;;;;;;6278246;28;20115;-72
2022/12/29 09:12:00;;;;;;;79.28;40.00;;;;;;;;;;6277244;28;20044;-74
2022/12/29 09:15:02;;;;;;;74.28;38.80;;;;;;;;;;6277349;28;20045;-74
2022/12/29 09:18:03;;;;;;;74.43;40.75;;;;;;;;;;6280000;28;20263;-75
2022/12/29 09:21:06;;;;;;;81.32;42.28;;;;;;;;;;6277681;28;20060;-74
2022/12/29 09:24:09;;;;;;;71.30;40.88;;;;;;;;;;6254440;28;20324;-75
2022/12/29 09:27:11;;;;;;;78.55;40.28;;;;;;;;;;6279404;28;20061;-75
2022/12/29 09:30:14;;;;;;;76.60;40.72;;;;;;;;;;6279178;28;20044;-75
2022/12/29 09:33:16;;;;;;;73.32;42.25;;;;;;;;;;6275929;28;20059;-75
2022/12/29 09:36:18;;;;;;;73.28;40.75;;;;;;;;;;6278599;28;20332;-75
2022/12/29 09:39:21;;;;;;;74.47;41.55;;;;;;;;;;6277867;28;20122;-74
2022/12/29 09:42:26;;;;;;;73.22;40.92;;;;;;;;;;6277066;28;20361;-75
2022/12/29 09:45:32;;;;;;;74.38;40.70;;;;;;;;;;6276424;28;20279;-74
2022/12/29 09:48:37;;;;;;;79.78;40.70;;;;;;;;;;6280181;28;20048;-74
2022/12/29 09:51:39;;;;;;;77.45;42.55;;;;;;;;;;6277581;28;20045;-74
2022/12/29 09:54:48;;;;;;;78.05;42.53;;;;;;;;;;6277684;28;20045;-74
2022/12/29 09:57:54;;;;;;;77.00;42.00;;;;;;;;;;6280188;28;20272;-74
2022/12/29 10:01:01;;;;;;;69.70;40.50;;;;;;;;;;6277615;28;20091;-74
2022/12/29 10:04:04;;;;;;;74.75;42.53;;;;;;;;;;6277264;28;20053;-74
2022/12/29 10:07:11;;;;;;;72.53;40.70;;;;;;;;;;6275429;28;20056;-74
2022/12/29 10:10:28;;;;;;;66.40;40.97;;;;;;;;;;6277346;28;20299;-71
2022/12/29 10:13:39;;;;;;;73.18;40.45;;;;;;;;;;6274676;28;20045;-74
2022/12/29 10:16:47;;;;;;;72.25;40.47;;;;;;;;;;6276977;28;20048;-74
2022/12/29 10:19:58;;;;;;;69.57;39.25;;;;;;;;;;6276296;28;20048;-75
2022/12/29 10:23:12;;;;;;;67.70;39.47;;;;;;;;;;6278139;28;20048;-73
2022/12/29 10:26:17;;;;;;;70.00;39.88;;;;;;;;;;6278235;28;20222;-75
2022/12/29 10:29:20;;;;;;;68.43;39.20;;;;;;;;;;6276913;28;20049;-71
2022/12/29 10:32:31;;;;;;;71.13;41.15;;;;;;;;;;6276233;28;20060;-74
2022/12/29 10:35:38;;;;;;;65.80;41.00;;;;;;;;;;6278056;28;20040;-73
2022/12/29 10:38:46;;;;;;;67.43;40.22;;;;;;;;;;6278101;28;20053;-73
2022/12/29 10:41:51;;;;;;;73.93;41.67;;;;;;;;;;6279202;28;20072;-74
2022/12/29 10:44:53;;;;;;;69.78;40.80;;;;;;;;;;6275869;28;20094;-74
2022/12/29 10:47:58;;;;;;;74.82;40.80;;;;;;;;;;6276421;28;20052;-75
2022/12/29 10:51:01;;;;;;;69.28;41.47;;;;;;;;;;6277545;28;20064;-74
2022/12/29 10:54:06;;;;;;;71.55;41.50;;;;;;;;;;6278566;28;20082;-72
2022/12/29 10:57:12;;;;;;;66.13;39.22;;;;;;;;;;6275917;28;20041;-74
2022/12/29 11:00:16;;;;;;;71.40;40.80;;;;;;;;;;6276868;28;20053;-74
2022/12/29 11:03:58;;;;;;;64.30;39.63;;;;;;;;;;6278256;28;20044;-75
2022/12/29 11:07:01;;;;;;;69.28;39.75;;;;;;;;;;6275832;28;20095;-74
2022/12/29 11:10:19;;;;;;;74.38;42.40;;;;;;;;;;6277329;28;20040;-74
2022/12/29 11:13:27;;;;;;;66.22;40.90;;;;;;;;;;6274380;28;20052;-74
2022/12/29 11:16:31;;;;;;;69.25;39.83;;;;;;;;;;6275862;28;20041;-74
2022/12/29 11:19:34;;;;;;;67.80;41.45;;;;;;;;;;6276097;28;20045;-75
2022/12/29 11:22:36;;;;;;;72.90;42.95;;;;;;;;;;6279953;28;20064;-75
2022/12/29 11:25:38;;;;;;;71.97;40.38;;;;;;;;;;6276812;28;20234;-75
2022/12/29 11:28:42;;;;;;;66.78;40.78;;;;;;;;;;6275347;28;20053;-74
2022/12/29 11:31:46;;;;;;;67.75;39.65;;;;;;;;;;6251624;28;20503;-74
2022/12/29 11:34:48;;;;;;;74.97;42.70;;;;;;;;;;6251607;28;20345;-75
2022/12/29 11:37:56;;;;;;;69.13;40.15;;;;;;;;;;6252120;28;20510;-75
2022/12/29 11:40:58;;;;;;;69.40;40.58;;;;;;;;;;6249459;28;20155;-74
2022/12/29 11:44:04;;;;;;;70.30;40.78;;;;;;;;;;6251415;28;20045;-75
2022/12/29 11:47:06;;;;;;;64.32;40.20;;;;;;;;;;6252999;28;20065;-74
2022/12/29 11:50:09;;;;;;;68.03;40.05;;;;;;;;;;6253660;28;21760;-74
2022/12/29 11:53:18;;;;;;;67.70;39.72;;;;;;;;;;6249491;28;20121;-74
2022/12/29 11:56:22;;;;;;;72.93;41.63;;;;;;;;;;6251158;28;20072;-75
2022/12/29 11:59:44;;;;;;;69.30;40.47;;;;;;;;;;6251322;28;20103;-74
2022/12/29 12:02:49;;;;;;;72.50;40.53;;;;;;;;;;6255089;28;20080;-75
2022/12/29 12:05:55;;;;;;;68.38;40.10;;;;;;;;;;6255674;28;20045;-75
2022/12/29 12:09:00;;;;;;;67.57;41.05;;;;;;;;;;6274790;28;20079;-75
2022/12/29 12:12:02;;;;;;;76.35;39.65;;;;;;;;;;6267736;28;20037;-73
2022/12/29 12:15:07;;;;;;;70.53;39.92;;;;;;;;;;6249188;28;20056;-74
2022/12/29 12:18:11;;;;;;;65.53;39.22;;;;;;;;;;6254536;28;20267;-74
2022/12/29 12:21:21;;;;;;;69.00;39.55;;;;;;;;;;6251758;28;20055;-75
2022/12/29 12:24:42;;;;;;;65.43;38.65;;;;;;;;;;6248314;28;20081;-75
2022/12/29 12:27:49;;;;;;;67.28;38.92;;;;;;;;;;6257261;28;20042;-75
2022/12/29 12:30:56;;;;;;;69.63;38.22;;;;;;;;;;6254479;28;20111;-74
2022/12/29 12:34:01;;;;;;;67.25;40.55;;;;;;;;;;6256030;28;20054;-75
2022/12/29 12:37:16;;;;;;;59.55;35.88;;;;;;;;;;6254216;28;20103;-75
2022/12/29 12:40:41;;;;;;;59.40;35.97;;;;;;;;;;6257256;28;20053;-74
2022/12/29 12:43:45;;;;;;;57.92;35.53;;;;;;;;;;6248361;28;20299;-71
2022/12/29 12:47:00;;;;;;;58.75;35.75;;;;;;;;;;6249798;28;20061;-73
2022/12/29 12:50:27;;;;;;;60.97;36.35;;;;;;;;;;6250558;28;20379;-72
2022/12/29 12:53:53;;;;;;;60.10;35.15;;;;;;;;;;6255120;28;20140;-73
2022/12/29 12:57:03;;;;;;;55.72;33.15;;;;;;;;;;6254959;28;20229;-72
2022/12/29 13:00:10;;;;;;;54.88;34.50;;;;;;;;;;6252711;28;20041;-74
2022/12/29 13:03:18;;;;;;;54.95;34.78;;;;;;;;;;6276302;28;20087;-74
2022/12/29 13:06:28;;;;;;;60.72;35.88;;;;;;;;;;6277463;28;20331;-75
2022/12/29 13:09:44;;;;;;;52.28;32.97;;;;;;;;;;6278625;28;20075;-75
2022/12/29 13:12:53;;;;;;;57.08;35.30;;;;;;;;;;6277459;28;20060;-73
2022/12/29 13:16:01;;;;;;;54.78;34.47;;;;;;;;;;6279325;28;20060;-72
2022/12/29 13:19:09;;;;;;;53.85;34.65;;;;;;;;;;6276963;28;20048;-74
2022/12/29 13:22:14;;;;;;;60.65;36.22;;;;;;;;;;6248393;28;20403;-74
2022/12/29 13:25:24;;;;;;;60.17;35.35;;;;;;;;;;6278565;28;20067;-75
2022/12/29 13:28:29;;;;;;;51.67;34.00;;;;;;;;;;6279348;28;20236;-74
2022/12/29 13:31:34;;;;;;;54.88;34.05;;;;;;;;;;6277037;28;20048;-74
2022/12/29 13:34:40;;;;;;;56.67;35.03;;;;;;;;;;6278279;28;20103;-75
2022/12/29 13:37:48;;;;;;;53.90;33.42;;;;;;;;;;6277053;28;20109;-74
2022/12/29 13:40:53;;;;;;;58.47;33.83;;;;;;;;;;6278924;28;20060;-74
2022/12/29 13:43:55;;;;;;;53.00;32.33;;;;;;;;;;6279645;28;20053;-74
2022/12/29 13:47:00;;;;;;;55.50;35.25;;;;;;;;;;6276005;28;20056;-75
2022/12/29 13:50:06;;;;;;;50.47;33.72;;;;;;;;;;6279895;28;20051;-74
2022/12/29 13:53:15;;;;;;;53.25;32.92;;;;;;;;;;6279116;28;20047;-74
2022/12/29 13:56:24;;;;;;;54.35;33.45;;;;;;;;;;6278925;28;20350;-75
2022/12/29 13:59:38;;;;;;;55.72;32.88;;;;;;;;;;6277164;28;20049;-74
2022/12/29 14:02:47;;;;;;;53.45;34.00;;;;;;;;;;6276813;28;20359;-75
2022/12/29 14:06:06;;;;;;;58.28;34.28;;;;;;;;;;6277096;28;20048;-72
2022/12/29 14:09:41;;;;;;;58.22;35.05;;;;;;;;;;6278640;28;20057;-74
2022/12/29 14:12:44;;;;;;;54.40;33.88;;;;;;;;;;6275009;28;20049;-74
2022/12/29 14:15:50;;;;;;;54.03;33.55;;;;;;;;;;6276761;28;20061;-75
2022/12/29 14:18:53;;;;;;;51.55;32.88;;;;;;;;;;6277939;28;20094;-74
2022/12/29 14:21:58;;;;;;;50.10;33.17;;;;;;;;;;6278847;28;20048;-74
2022/12/29 14:25:00;;;;;;;52.25;33.78;;;;;;;;;;6277835;28;20049;-74
2022/12/29 14:28:16;;;;;;;55.63;33.40;;;;;;;;;;6274692;28;20045;-75
2022/12/29 14:31:45;;;;;;;56.30;33.63;;;;;;;;;;6277961;28;20057;-74
2022/12/29 14:34:46;;;;;;;51.45;33.88;;;;;;;;;;6224510;28;20104;-74
2022/12/29 14:38:06;;;;;;;56.00;33.67;;;;;;;;;;6223441;28;20068;-75
2022/12/29 14:41:30;;;;;;;49.92;32.90;;;;;;;;;;6224907;28;20066;-74
2022/12/29 14:44:32;;;;;;;53.58;33.40;;;;;;;;;;6226362;28;20045;-75
2022/12/29 14:47:35;;;;;;;52.42;33.20;;;;;;;;;;6224456;28;20041;-74
2022/12/29 14:50:40;;;;;;;48.30;30.65;;;;;;;;;;6226502;28;20100;-74
2022/12/29 14:53:46;;;;;;;50.17;31.35;;;;;;;;;;6210996;28;20057;-74
2022/12/29 14:56:48;;;;;;;53.83;33.45;;;;;;;;;;6223308;28;20093;-75
2022/12/29 14:59:54;;;;;;;51.50;31.75;;;;;;;;;;6226361;28;20136;-74
2022/12/29 15:03:05;;;;;;;49.42;31.10;;;;;;;;;;6223589;28;20065;-74
2022/12/29 15:06:11;;;;;;;47.78;30.40;;;;;;;;;;6227376;28;20292;-74
2022/12/29 15:09:23;;;;;;;51.30;31.65;;;;;;;;;;6229143;28;20356;-74
2022/12/29 15:12:34;;;;;;;47.35;30.27;;;;;;;;;;6278705;28;20072;-75
2022/12/29 15:15:38;;;;;;;48.72;31.38;;;;;;;;;;6276719;28;20623;-74
2022/12/29 15:18:42;;;;;;;48.75;29.75;;;;;;;;;;6280096;28;20142;-72
2022/12/29 15:21:44;;;;;;;47.42;29.98;;;;;;;;;;6253200;28;20340;-72
2022/12/29 15:24:47;;;;;;;44.78;28.85;;;;;;;;;;6252715;28;20053;-72
2022/12/29 15:27:52;;;;;;;47.97;30.58;;;;;;;;;;6253671;28;20057;-72
2022/12/29 15:30:56;;;;;;;47.58;31.00;;;;;;;;;;6251661;28;20384;-73
2022/12/29 15:34:09;;;;;;;47.75;30.58;;;;;;;;;;6247443;28;20119;-72
2022/12/29 15:37:16;;;;;;;43.28;28.70;;;;;;;;;;6244441;28;20041;-73
2022/12/29 15:40:25;;;;;;;51.60;30.83;;;;;;;;;;6253713;28;20061;-74
2022/12/29 15:43:49;;;;;;;44.78;28.42;;;;;;;;;;6252563;28;20056;-74
2022/12/29 15:46:51;;;;;;;44.95;30.02;;;;;;;;;;6251035;28;20320;-74
2022/12/29 15:49:56;;;;;;;46.60;30.45;;;;;;;;;;6252266;28;20049;-74
2022/12/29 15:52:58;;;;;;;46.95;28.65;;;;;;;;;;6248808;28;20233;-73
2022/12/29 15:56:03;;;;;;;47.90;30.75;;;;;;;;;;6251382;28;20337;-71
2022/12/29 15:59:05;;;;;;;46.75;28.83;;;;;;;;;;6268035;28;20271;-75
2022/12/29 16:02:10;;;;;;;53.75;29.85;;;;;;;;;;6274967;28;20060;-71
2022/12/29 16:05:16;;;;;;;45.95;29.15;;;;;;;;;;6276018;28;20040;-73
2022/12/29 16:08:25;;;;;;;42.25;27.08;;;;;;;;;;6273865;28;20066;-73
2022/12/29 16:11:32;;;;;;;49.10;29.98;;;;;;;;;;6273604;28;20061;-74
2022/12/29 16:14:41;;;;;;;45.78;28.35;;;;;;;;;;6273583;28;20124;-74
2022/12/29 16:17:47;;;;;;;48.97;30.40;;;;;;;;;;6276440;28;20087;-74
2022/12/29 16:20:49;;;;;;;43.55;28.92;;;;;;;;;;6275360;28;20095;-73
2022/12/29 16:23:52;;;;;;;45.15;29.15;;;;;;;;;;6276273;28;20094;-74
2022/12/29 16:26:59;;;;;;;46.75;30.00;;;;;;;;;;6273812;28;20045;-72
2022/12/29 16:30:06;;;;;;;41.83;28.15;;;;;;;;;;6275138;28;20102;-73
2022/12/29 16:33:39;;;;;;;46.05;29.38;;;;;;;;;;6275253;28;20099;-74
2022/12/29 16:36:52;;;;;;;45.40;28.67;;;;;;;;;;6274698;28;20152;-73
2022/12/29 16:39:54;;;;;;;43.88;30.00;;;;;;;;;;6276945;28;20044;-73
2022/12/29 16:42:59;;;;;;;48.13;30.67;;;;;;;;;;6274566;28;20229;-74
2022/12/29 16:46:22;;;;;;;46.00;29.40;;;;;;;;;;6275977;28;20045;-74
2022/12/29 16:49:24;;;;;;;48.47;29.77;;;;;;;;;;6279298;28;20057;-73
2022/12/29 16:52:30;;;;;;;46.15;31.33;;;;;;;;;;6280432;28;20321;-73
2022/12/29 16:55:32;;;;;;;52.88;31.15;;;;;;;;;;6281407;28;20056;-74
2022/12/29 16:58:35;;;;;;;47.70;30.83;;;;;;;;;;6279670;28;20051;-74
2022/12/29 17:01:38;;;;;;;49.20;30.17;;;;;;;;;;6278317;28;20053;-74
2022/12/29 17:04:40;;;;;;;44.95;28.50;;;;;;;;;;6277805;28;20332;-73
2022/12/29 17:07:41;;;;;;;43.70;29.35;;;;;;;;;;6280428;28;20041;-73
2022/12/29 17:14:04;;;;;;;44.60;28.63;;;;;;;;;;6279315;28;20336;-73
2022/12/29 17:17:10;;;;;;;42.88;27.75;;;;;;;;;;6280521;28;20280;-74
2022/12/29 17:20:16;;;;;;;45.53;28.52;;;;;;;;;;6279369;28;20048;-73
2022/12/29 17:23:17;;;;;;;45.15;28.85;;;;;;;;;;6282005;28;20098;-74
2022/12/29 17:26:19;;;;;;;49.15;29.77;;;;;;;;;;6280100;28;20079;-74
2022/12/29 17:29:29;;;;;;;44.42;28.77;;;;;;;;;;6277189;28;20049;-73
2022/12/29 17:32:31;;;;;;;49.65;30.30;;;;;;;;;;6278094;28;20119;-74
2022/12/29 17:35:32;;;;;;;56.92;32.33;;;;;;;;;;6279708;28;20053;-73
2022/12/29 17:38:36;;;;;;;53.25;31.55;;;;;;;;;;6279258;28;20051;-74
2022/12/29 17:41:38;;;;;;;54.97;32.45;;;;;;;;;;6280066;28;20108;-74
2022/12/29 17:44:42;;;;;;;47.53;31.23;;;;;;;;;;6279124;28;20055;-74
2022/12/29 17:47:44;;;;;;;51.50;31.48;;;;;;;;;;6278930;28;20114;-73
2022/12/29 17:50:46;;;;;;;52.08;31.70;;;;;;;;;;6279760;28;20337;-75
2022/12/29 17:53:49;;;;;;;53.10;30.77;;;;;;;;;;6278717;28;20055;-74
2022/12/29 17:56:50;;;;;;;53.50;32.47;;;;;;;;;;6277116;28;20048;-74
2022/12/29 17:59:53;;;;;;;53.13;32.45;;;;;;;;;;6272635;28;20244;-72
2022/12/29 18:02:55;;;;;;;59.05;35.13;;;;;;;;;;6263583;28;20045;-73
2022/12/29 18:05:57;;;;;;;58.70;35.30;;;;;;;;;;6265124;28;20156;-74
2022/12/29 18:08:59;;;;;;;57.65;34.53;;;;;;;;;;6265495;28;20336;-73
2022/12/29 18:12:01;;;;;;;66.35;35.38;;;;;;;;;;6266995;28;20072;-74
2022/12/29 18:15:04;;;;;;;59.08;34.80;;;;;;;;;;6264233;28;20407;-74
2022/12/29 18:18:11;;;;;;;57.83;34.45;;;;;;;;;;6266512;28;20045;-74
2022/12/29 18:21:18;;;;;;;64.25;34.63;;;;;;;;;;6265793;28;20076;-73
2022/12/29 18:24:20;;;;;;;56.75;34.47;;;;;;;;;;6279732;28;20055;-71
2022/12/29 18:27:22;;;;;;;60.90;34.92;;;;;;;;;;6280812;28;20053;-75
2022/12/29 18:30:25;;;;;;;62.67;35.88;;;;;;;;;;6281095;28;20063;-75
2022/12/29 18:33:27;;;;;;;59.67;34.97;;;;;;;;;;6278754;28;20058;-72
2022/12/29 18:36:29;;;;;;;59.58;34.53;;;;;;;;;;6281798;28;20054;-74
2022/12/29 18:39:31;;;;;;;64.90;35.13;;;;;;;;;;6281152;28;20048;-74